sensor_id;sensor_type;location;lat;lon;timestamp;temperature;humidity
3308;DHT22;1666;48.898;9.182;2022-08-11T00:00:03;20.90;1.00
3308;DHT22;1666;48.898;9.182;2022-08-11T00:02:38;20.80;1.00
3308;DHT22;1666;48.898;9.182;2022-08-11T00:05:11;20.80;1.00
3308;DHT22;1666;48.898;9.182;2022-08-11T00:07:43;20.70;1.00
3308;DHT22;1666;48.898;9.182;2022-08-11T00:10:15;20.70;1.00
3308;DHT22;1666;48.898;9.182;2022-08-11T00:12:51;20.80;1.00
3308;DHT22;1666;48.898;9.182;2022-08-11T00:15:27;20.70;1.00
3308;DHT22;1666;48.898;9.182;2022-08-11T00:17:58;20.70;1.00
3308;DHT22;1666;48.898;9.182;2022-08-11T00:20:29;20.60;1.00
3308;DHT22;1666;48.898;9.182;2022-08-11T00:23:02;20.60;1.00
3308;DHT22;1666;48.898;9.182;2022-08-11T00:25:37;20.60;1.00
3308;DHT22;1666;48.898;9.182;2022-08-11T00:28:25;20.50;1.00
3308;DHT22;1666;48.898;9.182;2022-08-11T00:31:02;20.50;1.00
3308;DHT22;1666;48.898;9.182;2022-08-11T00:33:36;20.40;1.00
3308;DHT22;1666;48.898;9.182;2022-08-11T00:36:14;20.40;1.00
3308;DHT22;1666;48.898;9.182;2022-08-11T00:38:51;20.30;1.00
3308;DHT22;1666;48.898;9.182;2022-08-11T00:41:33;20.30;1.00
3308;DHT22;1666;48.898;9.182;2022-08-11T00:44:15;20.20;1.00
3308;DHT22;1666;48.898;9.182;2022-08-11T00:47:04;20.20;1.00
3308;DHT22;1666;48.898;9.182;2022-08-11T00:49:50;20.10;1.00
3308;DHT22;1666;48.898;9.182;2022-08-11T00:52:35;20.10;1.00
3308;DHT22;1666;48.898;9.182;2022-08-11T01:01:38;20.00;1.00
3308;DHT22;1666;48.898;9.182;2022-08-11T01:10:50;19.90;1.00
3308;DHT22;1666;48.898;9.182;2022-08-11T01:13:49;19.90;1.00
3308;DHT22;1666;48.898;9.182;2022-08-11T01:16:50;19.80;1.00
3308;DHT22;1666;48.898;9.182;2022-08-11T01:23:19;19.80;1.00
3308;DHT22;1666;48.898;9.182;2022-08-11T01:29:37;19.70;1.00
3308;DHT22;1666;48.898;9.182;2022-08-11T01:32:51;19.70;1.00
3308;DHT22;1666;48.898;9.182;2022-08-11T01:39:00;19.70;1.00
3308;DHT22;1666;48.898;9.182;2022-08-11T01:41:53;19.50;1.00
3308;DHT22;1666;48.898;9.182;2022-08-11T01:45:15;19.40;1.00
3308;DHT22;1666;48.898;9.182;2022-08-11T01:47:59;19.30;1.00
3308;DHT22;1666;48.898;9.182;2022-08-11T01:50:56;19.20;1.00
3308;DHT22;1666;48.898;9.182;2022-08-11T01:53:46;19.20;1.00
3308;DHT22;1666;48.898;9.182;2022-08-11T01:56:31;19.20;1.00
3308;DHT22;1666;48.898;9.182;2022-08-11T01:59:09;19.20;1.00
3308;DHT22;1666;48.898;9.182;2022-08-11T02:02:03;19.20;1.00
3308;DHT22;1666;48.898;9.182;2022-08-11T02:04:38;19.10;1.00
3308;DHT22;1666;48.898;9.182;2022-08-11T02:07:18;19.10;1.00
3308;DHT22;1666;48.898;9.182;2022-08-11T02:10:00;19.10;1.00
3308;DHT22;1666;48.898;9.182;2022-08-11T02:13:14;19.00;1.00
3308;DHT22;1666;48.898;9.182;2022-08-11T02:16:19;19.00;1.00
3308;DHT22;1666;48.898;9.182;2022-08-11T02:18:54;19.00;1.00
3308;DHT22;1666;48.898;9.182;2022-08-11T02:21:51;18.90;1.00
3308;DHT22;1666;48.898;9.182;2022-08-11T02:24:45;18.90;1.00
3308;DHT22;1666;48.898;9.182;2022-08-11T02:27:20;19.00;1.00
3308;DHT22;1666;48.898;9.182;2022-08-11T02:29:58;18.90;1.00
3308;DHT22;1666;48.898;9.182;2022-08-11T02:32:36;19.00;1.00
3308;DHT22;1666;48.898;9.182;2022-08-11T02:35:25;19.00;1.00
3308;DHT22;1666;48.898;9.182;2022-08-11T02:38:13;18.90;1.00
3308;DHT22;1666;48.898;9.182;2022-08-11T02:40:56;18.90;1.00
3308;DHT22;1666;48.898;9.182;2022-08-11T02:43:40;18.90;1.00
3308;DHT22;1666;48.898;9.182;2022-08-11T02:46:23;18.80;1.00
3308;DHT22;1666;48.898;9.182;2022-08-11T02:49:04;18.90;1.00
3308;DHT22;1666;48.898;9.182;2022-08-11T02:52:04;18.80;1.00
3308;DHT22;1666;48.898;9.182;2022-08-11T02:54:42;18.80;1.00
3308;DHT22;1666;48.898;9.182;2022-08-11T02:57:21;18.80;1.00
3308;DHT22;1666;48.898;9.182;2022-08-11T02:59:56;18.70;1.00
3308;DHT22;1666;48.898;9.182;2022-08-11T03:02:42;18.70;1.00
3308;DHT22;1666;48.898;9.182;2022-08-11T03:05:23;18.60;1.00
3308;DHT22;1666;48.898;9.182;2022-08-11T03:08:13;18.50;1.00
3308;DHT22;1666;48.898;9.182;2022-08-11T03:10:53;18.30;1.00
3308;DHT22;1666;48.898;9.182;2022-08-11T03:16:53;18.30;1.00
3308;DHT22;1666;48.898;9.182;2022-08-11T03:19:32;18.20;1.00
3308;DHT22;1666;48.898;9.182;2022-08-11T03:22:07;18.20;1.00
3308;DHT22;1666;48.898;9.182;2022-08-11T03:24:52;18.10;1.00
3308;DHT22;1666;48.898;9.182;2022-08-11T03:27:33;18.10;1.00
3308;DHT22;1666;48.898;9.182;2022-08-11T03:30:14;18.00;1.00
3308;DHT22;1666;48.898;9.182;2022-08-11T03:32:55;17.90;1.00
3308;DHT22;1666;48.898;9.182;2022-08-11T03:35:40;18.00;1.00
3308;DHT22;1666;48.898;9.182;2022-08-11T03:38:14;17.90;1.00
3308;DHT22;1666;48.898;9.182;2022-08-11T03:40:57;17.90;1.00
3308;DHT22;1666;48.898;9.182;2022-08-11T03:44:07;17.90;1.00
3308;DHT22;1666;48.898;9.182;2022-08-11T03:47:05;17.90;1.00
3308;DHT22;1666;48.898;9.182;2022-08-11T03:49:43;18.00;1.00
3308;DHT22;1666;48.898;9.182;2022-08-11T03:52:20;18.10;1.00
3308;DHT22;1666;48.898;9.182;2022-08-11T03:54:59;18.00;1.00
3308;DHT22;1666;48.898;9.182;2022-08-11T03:58:09;18.10;1.00
3308;DHT22;1666;48.898;9.182;2022-08-11T04:03:59;17.90;1.00
3308;DHT22;1666;48.898;9.182;2022-08-11T04:06:53;18.00;1.00
3308;DHT22;1666;48.898;9.182;2022-08-11T04:09:55;18.10;1.00
3308;DHT22;1666;48.898;9.182;2022-08-11T04:16:07;17.90;1.00
3308;DHT22;1666;48.898;9.182;2022-08-11T04:18:59;17.90;1.00
3308;DHT22;1666;48.898;9.182;2022-08-11T04:22:06;17.60;1.00
3308;DHT22;1666;48.898;9.182;2022-08-11T04:25:01;17.60;1.00
3308;DHT22;1666;48.898;9.182;2022-08-11T04:27:52;17.70;1.00
3308;DHT22;1666;48.898;9.182;2022-08-11T04:30:39;17.60;1.00
3308;DHT22;1666;48.898;9.182;2022-08-11T04:33:34;17.80;1.00
3308;DHT22;1666;48.898;9.182;2022-08-11T04:36:31;18.00;1.00
3308;DHT22;1666;48.898;9.182;2022-08-11T04:39:24;18.10;1.00
3308;DHT22;1666;48.898;9.182;2022-08-11T04:42:13;18.60;1.00
3308;DHT22;1666;48.898;9.182;2022-08-11T04:45:25;18.60;1.00
3308;DHT22;1666;48.898;9.182;2022-08-11T04:48:19;19.10;1.00
3308;DHT22;1666;48.898;9.182;2022-08-11T04:54:27;19.50;1.00
3308;DHT22;1666;48.898;9.182;2022-08-11T04:57:19;20.40;1.00
3308;DHT22;1666;48.898;9.182;2022-08-11T05:00:06;20.50;1.00
3308;DHT22;1666;48.898;9.182;2022-08-11T05:03:21;20.60;1.00
3308;DHT22;1666;48.898;9.182;2022-08-11T05:06:24;21.10;1.00
3308;DHT22;1666;48.898;9.182;2022-08-11T05:09:14;21.80;1.00
3308;DHT22;1666;48.898;9.182;2022-08-11T05:14:50;21.40;1.00
3308;DHT22;1666;48.898;9.182;2022-08-11T05:17:36;21.70;1.00
3308;DHT22;1666;48.898;9.182;2022-08-11T05:20:20;21.70;1.00
3308;DHT22;1666;48.898;9.182;2022-08-11T05:23:05;21.20;1.00
3308;DHT22;1666;48.898;9.182;2022-08-11T05:25:54;21.00;1.00
3308;DHT22;1666;48.898;9.182;2022-08-11T05:29:02;20.60;1.00
3308;DHT22;1666;48.898;9.182;2022-08-11T05:31:54;20.90;1.00
3308;DHT22;1666;48.898;9.182;2022-08-11T05:34:42;21.20;1.00
3308;DHT22;1666;48.898;9.182;2022-08-11T05:37:24;21.10;1.00
3308;DHT22;1666;48.898;9.182;2022-08-11T05:40:05;20.60;1.00
3308;DHT22;1666;48.898;9.182;2022-08-11T05:42:50;20.60;1.00
3308;DHT22;1666;48.898;9.182;2022-08-11T05:45:39;21.00;1.00
3308;DHT22;1666;48.898;9.182;2022-08-11T05:48:33;22.30;1.00
3308;DHT22;1666;48.898;9.182;2022-08-11T05:51:16;22.90;1.00
3308;DHT22;1666;48.898;9.182;2022-08-11T05:53:59;22.00;1.00
3308;DHT22;1666;48.898;9.182;2022-08-11T05:56:58;20.80;1.00
3308;DHT22;1666;48.898;9.182;2022-08-11T05:59:28;20.20;1.00
3308;DHT22;1666;48.898;9.182;2022-08-11T06:02:04;20.40;1.00
3308;DHT22;1666;48.898;9.182;2022-08-11T06:04:36;20.50;1.00
3308;DHT22;1666;48.898;9.182;2022-08-11T06:07:08;20.60;1.00
3308;DHT22;1666;48.898;9.182;2022-08-11T06:09:47;20.60;1.00
3308;DHT22;1666;48.898;9.182;2022-08-11T06:12:21;20.80;1.00
3308;DHT22;1666;48.898;9.182;2022-08-11T06:14:54;21.00;1.00
3308;DHT22;1666;48.898;9.182;2022-08-11T06:17:29;20.60;1.00
3308;DHT22;1666;48.898;9.182;2022-08-11T06:20:07;20.50;1.00
3308;DHT22;1666;48.898;9.182;2022-08-11T06:22:42;20.50;1.00
3308;DHT22;1666;48.898;9.182;2022-08-11T06:25:19;20.50;1.00
3308;DHT22;1666;48.898;9.182;2022-08-11T06:27:54;20.60;1.00
3308;DHT22;1666;48.898;9.182;2022-08-11T06:30:33;20.50;1.00
3308;DHT22;1666;48.898;9.182;2022-08-11T06:33:10;20.80;1.00
3308;DHT22;1666;48.898;9.182;2022-08-11T06:35:47;21.00;1.00
3308;DHT22;1666;48.898;9.182;2022-08-11T06:38:35;21.10;1.00
3308;DHT22;1666;48.898;9.182;2022-08-11T06:41:15;21.20;1.00
3308;DHT22;1666;48.898;9.182;2022-08-11T06:44:13;20.90;1.00
3308;DHT22;1666;48.898;9.182;2022-08-11T06:46:47;21.00;1.00
3308;DHT22;1666;48.898;9.182;2022-08-11T06:49:31;21.40;1.00
3308;DHT22;1666;48.898;9.182;2022-08-11T06:52:14;21.40;1.00
3308;DHT22;1666;48.898;9.182;2022-08-11T06:55:05;21.50;1.00
3308;DHT22;1666;48.898;9.182;2022-08-11T06:57:56;21.70;1.00
3308;DHT22;1666;48.898;9.182;2022-08-11T07:00:39;21.80;1.00
3308;DHT22;1666;48.898;9.182;2022-08-11T07:03:11;22.00;1.00
3308;DHT22;1666;48.898;9.182;2022-08-11T07:05:47;22.10;1.00
3308;DHT22;1666;48.898;9.182;2022-08-11T07:14:48;22.50;1.00
3308;DHT22;1666;48.898;9.182;2022-08-11T07:17:35;22.40;1.00
3308;DHT22;1666;48.898;9.182;2022-08-11T07:20:07;22.50;1.00
3308;DHT22;1666;48.898;9.182;2022-08-11T07:22:57;23.00;1.00
3308;DHT22;1666;48.898;9.182;2022-08-11T07:25:42;23.30;1.00
3308;DHT22;1666;48.898;9.182;2022-08-11T07:28:28;23.10;1.00
3308;DHT22;1666;48.898;9.182;2022-08-11T07:31:13;22.90;1.00
3308;DHT22;1666;48.898;9.182;2022-08-11T07:33:46;23.20;1.00
3308;DHT22;1666;48.898;9.182;2022-08-11T07:36:41;23.10;1.00
3308;DHT22;1666;48.898;9.182;2022-08-11T07:39:20;23.30;1.00
3308;DHT22;1666;48.898;9.182;2022-08-11T07:41:57;23.30;1.00
3308;DHT22;1666;48.898;9.182;2022-08-11T07:44:28;24.00;1.00
3308;DHT22;1666;48.898;9.182;2022-08-11T07:47:23;24.30;1.00
3308;DHT22;1666;48.898;9.182;2022-08-11T07:50:08;24.20;1.00
3308;DHT22;1666;48.898;9.182;2022-08-11T07:52:51;24.40;1.00
3308;DHT22;1666;48.898;9.182;2022-08-11T07:55:30;24.50;1.00
3308;DHT22;1666;48.898;9.182;2022-08-11T07:58:20;24.20;1.00
3308;DHT22;1666;48.898;9.182;2022-08-11T08:01:20;24.00;1.00
3308;DHT22;1666;48.898;9.182;2022-08-11T08:04:05;24.00;1.00
3308;DHT22;1666;48.898;9.182;2022-08-11T08:06:51;24.30;1.00
3308;DHT22;1666;48.898;9.182;2022-08-11T08:09:35;24.80;1.00
3308;DHT22;1666;48.898;9.182;2022-08-11T08:12:23;24.80;1.00
3308;DHT22;1666;48.898;9.182;2022-08-11T08:15:09;24.50;1.00
3308;DHT22;1666;48.898;9.182;2022-08-11T08:17:52;24.90;1.00
3308;DHT22;1666;48.898;9.182;2022-08-11T08:20:47;24.80;1.00
3308;DHT22;1666;48.898;9.182;2022-08-11T08:23:20;25.00;1.00
3308;DHT22;1666;48.898;9.182;2022-08-11T08:26:01;25.10;1.00
3308;DHT22;1666;48.898;9.182;2022-08-11T08:28:45;25.00;1.00
3308;DHT22;1666;48.898;9.182;2022-08-11T08:31:15;25.20;1.00
3308;DHT22;1666;48.898;9.182;2022-08-11T08:33:42;25.50;1.00
3308;DHT22;1666;48.898;9.182;2022-08-11T08:36:13;25.60;1.00
3308;DHT22;1666;48.898;9.182;2022-08-11T08:38:49;25.40;1.00
3308;DHT22;1666;48.898;9.182;2022-08-11T08:41:23;25.30;1.00
3308;DHT22;1666;48.898;9.182;2022-08-11T08:44:03;25.20;1.00
3308;DHT22;1666;48.898;9.182;2022-08-11T08:46:55;25.20;1.00
3308;DHT22;1666;48.898;9.182;2022-08-11T08:49:30;25.30;1.00
3308;DHT22;1666;48.898;9.182;2022-08-11T08:52:09;25.60;1.00
3308;DHT22;1666;48.898;9.182;2022-08-11T08:55:03;25.50;1.00
3308;DHT22;1666;48.898;9.182;2022-08-11T08:57:35;25.60;1.00
3308;DHT22;1666;48.898;9.182;2022-08-11T09:00:10;25.90;1.00
3308;DHT22;1666;48.898;9.182;2022-08-11T09:02:48;25.70;1.00
3308;DHT22;1666;48.898;9.182;2022-08-11T09:05:19;26.20;1.00
3308;DHT22;1666;48.898;9.182;2022-08-11T09:07:53;26.10;1.00
3308;DHT22;1666;48.898;9.182;2022-08-11T09:10:24;26.10;1.00
3308;DHT22;1666;48.898;9.182;2022-08-11T09:12:58;26.10;1.00
3308;DHT22;1666;48.898;9.182;2022-08-11T09:15:31;25.90;1.00
3308;DHT22;1666;48.898;9.182;2022-08-11T09:18:03;26.40;1.00
3308;DHT22;1666;48.898;9.182;2022-08-11T09:20:37;26.30;1.00
3308;DHT22;1666;48.898;9.182;2022-08-11T09:23:08;26.20;1.00
3308;DHT22;1666;48.898;9.182;2022-08-11T09:26:10;26.00;1.00
3308;DHT22;1666;48.898;9.182;2022-08-11T09:28:58;26.10;1.00
3308;DHT22;1666;48.898;9.182;2022-08-11T09:31:33;26.20;1.00
3308;DHT22;1666;48.898;9.182;2022-08-11T09:34:07;26.00;1.00
3308;DHT22;1666;48.898;9.182;2022-08-11T09:36:39;26.20;1.00
3308;DHT22;1666;48.898;9.182;2022-08-11T09:39:22;26.40;1.00
3308;DHT22;1666;48.898;9.182;2022-08-11T09:42:05;26.50;1.00
3308;DHT22;1666;48.898;9.182;2022-08-11T09:44:42;26.50;1.00
3308;DHT22;1666;48.898;9.182;2022-08-11T09:47:23;26.50;1.00
3308;DHT22;1666;48.898;9.182;2022-08-11T09:49:56;26.40;1.00
3308;DHT22;1666;48.898;9.182;2022-08-11T09:52:36;26.70;1.00
3308;DHT22;1666;48.898;9.182;2022-08-11T09:55:27;26.50;1.00
3308;DHT22;1666;48.898;9.182;2022-08-11T09:57:57;26.90;1.00
3308;DHT22;1666;48.898;9.182;2022-08-11T10:01:02;26.60;1.00
3308;DHT22;1666;48.898;9.182;2022-08-11T10:03:38;26.30;1.00
3308;DHT22;1666;48.898;9.182;2022-08-11T10:06:10;26.50;1.00
3308;DHT22;1666;48.898;9.182;2022-08-11T10:09:02;26.50;1.00
3308;DHT22;1666;48.898;9.182;2022-08-11T10:11:35;26.10;1.00
3308;DHT22;1666;48.898;9.182;2022-08-11T10:14:07;26.30;1.00
3308;DHT22;1666;48.898;9.182;2022-08-11T10:17:02;26.40;1.00
3308;DHT22;1666;48.898;9.182;2022-08-11T10:19:37;26.70;1.00
3308;DHT22;1666;48.898;9.182;2022-08-11T10:22:08;27.00;1.00
3308;DHT22;1666;48.898;9.182;2022-08-11T10:24:55;27.20;1.00
3308;DHT22;1666;48.898;9.182;2022-08-11T10:27:41;26.90;1.00
3308;DHT22;1666;48.898;9.182;2022-08-11T10:30:34;26.80;1.00
3308;DHT22;1666;48.898;9.182;2022-08-11T10:33:17;27.00;1.00
3308;DHT22;1666;48.898;9.182;2022-08-11T10:36:06;27.00;1.00
3308;DHT22;1666;48.898;9.182;2022-08-11T10:38:42;27.20;1.00
3308;DHT22;1666;48.898;9.182;2022-08-11T10:41:18;27.40;1.00
3308;DHT22;1666;48.898;9.182;2022-08-11T10:44:01;26.90;1.00
3308;DHT22;1666;48.898;9.182;2022-08-11T10:46:32;27.00;1.00
3308;DHT22;1666;48.898;9.182;2022-08-11T10:49:18;27.10;1.00
3308;DHT22;1666;48.898;9.182;2022-08-11T10:51:52;27.20;1.00
3308;DHT22;1666;48.898;9.182;2022-08-11T10:54:39;27.50;1.00
3308;DHT22;1666;48.898;9.182;2022-08-11T10:57:22;27.40;1.00
3308;DHT22;1666;48.898;9.182;2022-08-11T11:00:08;27.50;1.00
3308;DHT22;1666;48.898;9.182;2022-08-11T11:02:41;27.40;1.00
3308;DHT22;1666;48.898;9.182;2022-08-11T11:05:32;27.80;1.00
3308;DHT22;1666;48.898;9.182;2022-08-11T11:08:27;27.90;1.00
3308;DHT22;1666;48.898;9.182;2022-08-11T11:11:12;27.50;1.00
3308;DHT22;1666;48.898;9.182;2022-08-11T11:13:48;27.50;1.00
3308;DHT22;1666;48.898;9.182;2022-08-11T11:16:32;27.40;1.00
3308;DHT22;1666;48.898;9.182;2022-08-11T11:19:23;27.70;1.00
3308;DHT22;1666;48.898;9.182;2022-08-11T11:21:56;27.60;1.00
3308;DHT22;1666;48.898;9.182;2022-08-11T11:24:59;27.90;1.00
3308;DHT22;1666;48.898;9.182;2022-08-11T11:27:36;27.70;1.00
3308;DHT22;1666;48.898;9.182;2022-08-11T11:30:15;27.90;1.00
3308;DHT22;1666;48.898;9.182;2022-08-11T11:32:52;28.10;1.00
3308;DHT22;1666;48.898;9.182;2022-08-11T11:35:36;27.80;1.00
3308;DHT22;1666;48.898;9.182;2022-08-11T11:38:10;27.80;1.00
3308;DHT22;1666;48.898;9.182;2022-08-11T11:40:44;27.90;1.00
3308;DHT22;1666;48.898;9.182;2022-08-11T11:43:35;27.90;1.00
3308;DHT22;1666;48.898;9.182;2022-08-11T11:46:05;28.30;1.00
3308;DHT22;1666;48.898;9.182;2022-08-11T11:48:37;28.60;1.00
3308;DHT22;1666;48.898;9.182;2022-08-11T11:51:08;28.10;1.00
3308;DHT22;1666;48.898;9.182;2022-08-11T11:53:41;28.10;1.00
3308;DHT22;1666;48.898;9.182;2022-08-11T11:56:15;28.10;1.00
3308;DHT22;1666;48.898;9.182;2022-08-11T11:58:46;28.50;1.00
3308;DHT22;1666;48.898;9.182;2022-08-11T12:01:29;28.40;1.00
3308;DHT22;1666;48.898;9.182;2022-08-11T12:04:02;28.20;1.00
3308;DHT22;1666;48.898;9.182;2022-08-11T12:06:34;28.30;1.00
3308;DHT22;1666;48.898;9.182;2022-08-11T12:09:06;28.10;1.00
3308;DHT22;1666;48.898;9.182;2022-08-11T12:11:38;28.40;1.00
3308;DHT22;1666;48.898;9.182;2022-08-11T12:14:21;28.30;1.00
3308;DHT22;1666;48.898;9.182;2022-08-11T12:16:55;28.50;1.00
3308;DHT22;1666;48.898;9.182;2022-08-11T12:19:26;28.80;1.00
3308;DHT22;1666;48.898;9.182;2022-08-11T12:22:02;28.60;1.00
3308;DHT22;1666;48.898;9.182;2022-08-11T12:24:44;28.40;1.00
3308;DHT22;1666;48.898;9.182;2022-08-11T12:27:39;28.70;1.00
3308;DHT22;1666;48.898;9.182;2022-08-11T12:30:10;29.00;1.00
3308;DHT22;1666;48.898;9.182;2022-08-11T12:32:42;28.80;1.00
3308;DHT22;1666;48.898;9.182;2022-08-11T12:35:14;28.30;1.00
3308;DHT22;1666;48.898;9.182;2022-08-11T12:37:47;28.40;1.00
3308;DHT22;1666;48.898;9.182;2022-08-11T12:40:24;28.70;1.00
3308;DHT22;1666;48.898;9.182;2022-08-11T12:43:31;28.70;1.00
3308;DHT22;1666;48.898;9.182;2022-08-11T12:46:28;28.80;1.00
3308;DHT22;1666;48.898;9.182;2022-08-11T12:49:00;29.00;1.00
3308;DHT22;1666;48.898;9.182;2022-08-11T12:52:05;28.90;1.00
3308;DHT22;1666;48.898;9.182;2022-08-11T12:54:47;28.90;1.00
3308;DHT22;1666;48.898;9.182;2022-08-11T12:57:28;29.10;1.00
3308;DHT22;1666;48.898;9.182;2022-08-11T13:00:15;28.80;1.00
3308;DHT22;1666;48.898;9.182;2022-08-11T13:02:58;28.80;1.00
3308;DHT22;1666;48.898;9.182;2022-08-11T13:05:41;29.00;1.00
3308;DHT22;1666;48.898;9.182;2022-08-11T13:08:12;29.10;1.00
3308;DHT22;1666;48.898;9.182;2022-08-11T13:10:43;29.10;1.00
3308;DHT22;1666;48.898;9.182;2022-08-11T13:13:30;29.50;1.00
3308;DHT22;1666;48.898;9.182;2022-08-11T13:16:27;29.40;1.00
3308;DHT22;1666;48.898;9.182;2022-08-11T13:18:58;29.30;1.00
3308;DHT22;1666;48.898;9.182;2022-08-11T13:21:29;29.10;1.00
3308;DHT22;1666;48.898;9.182;2022-08-11T13:24:00;29.10;1.00
3308;DHT22;1666;48.898;9.182;2022-08-11T13:26:32;29.20;1.00
3308;DHT22;1666;48.898;9.182;2022-08-11T13:29:17;29.10;1.00
3308;DHT22;1666;48.898;9.182;2022-08-11T13:31:56;29.20;1.00
3308;DHT22;1666;48.898;9.182;2022-08-11T13:34:28;29.30;1.00
3308;DHT22;1666;48.898;9.182;2022-08-11T13:37:00;29.10;1.00
3308;DHT22;1666;48.898;9.182;2022-08-11T13:39:32;29.30;1.00
3308;DHT22;1666;48.898;9.182;2022-08-11T13:42:04;29.80;1.00
3308;DHT22;1666;48.898;9.182;2022-08-11T13:44:35;29.70;1.00
3308;DHT22;1666;48.898;9.182;2022-08-11T13:47:11;29.30;1.00
3308;DHT22;1666;48.898;9.182;2022-08-11T13:49:43;29.50;1.00
3308;DHT22;1666;48.898;9.182;2022-08-11T13:52:15;29.50;1.00
3308;DHT22;1666;48.898;9.182;2022-08-11T13:54:46;29.60;1.00
3308;DHT22;1666;48.898;9.182;2022-08-11T13:57:17;29.70;1.00
3308;DHT22;1666;48.898;9.182;2022-08-11T14:00:08;29.80;1.00
3308;DHT22;1666;48.898;9.182;2022-08-11T14:02:57;29.90;1.00
3308;DHT22;1666;48.898;9.182;2022-08-11T14:05:32;29.50;1.00
3308;DHT22;1666;48.898;9.182;2022-08-11T14:08:08;29.70;1.00
3308;DHT22;1666;48.898;9.182;2022-08-11T14:11:01;29.60;1.00
3308;DHT22;1666;48.898;9.182;2022-08-11T14:14:07;29.20;1.00
3308;DHT22;1666;48.898;9.182;2022-08-11T14:16:45;29.40;1.00
3308;DHT22;1666;48.898;9.182;2022-08-11T14:19:22;29.60;1.00
3308;DHT22;1666;48.898;9.182;2022-08-11T14:21:53;29.50;1.00
3308;DHT22;1666;48.898;9.182;2022-08-11T14:24:36;29.80;1.00
3308;DHT22;1666;48.898;9.182;2022-08-11T14:27:08;29.60;1.00
3308;DHT22;1666;48.898;9.182;2022-08-11T14:29:58;29.70;1.00
3308;DHT22;1666;48.898;9.182;2022-08-11T14:32:29;29.80;1.00
3308;DHT22;1666;48.898;9.182;2022-08-11T14:35:21;30.00;1.00
3308;DHT22;1666;48.898;9.182;2022-08-11T14:37:51;30.20;1.00
3308;DHT22;1666;48.898;9.182;2022-08-11T14:40:22;30.30;1.00
3308;DHT22;1666;48.898;9.182;2022-08-11T14:43:05;30.20;1.00
3308;DHT22;1666;48.898;9.182;2022-08-11T14:46:08;30.20;1.00
3308;DHT22;1666;48.898;9.182;2022-08-11T14:48:50;30.50;1.00
3308;DHT22;1666;48.898;9.182;2022-08-11T14:51:23;30.10;1.00
3308;DHT22;1666;48.898;9.182;2022-08-11T14:53:55;29.80;1.00
3308;DHT22;1666;48.898;9.182;2022-08-11T14:56:45;29.80;1.00
3308;DHT22;1666;48.898;9.182;2022-08-11T14:59:13;30.10;1.00
3308;DHT22;1666;48.898;9.182;2022-08-11T15:01:43;30.10;1.00
3308;DHT22;1666;48.898;9.182;2022-08-11T15:04:26;30.00;1.00
3308;DHT22;1666;48.898;9.182;2022-08-11T15:07:04;29.90;1.00
3308;DHT22;1666;48.898;9.182;2022-08-11T15:09:43;29.80;1.00
3308;DHT22;1666;48.898;9.182;2022-08-11T15:12:35;29.70;1.00
3308;DHT22;1666;48.898;9.182;2022-08-11T15:15:07;29.70;1.00
3308;DHT22;1666;48.898;9.182;2022-08-11T15:17:52;29.80;1.00
3308;DHT22;1666;48.898;9.182;2022-08-11T15:20:25;29.70;1.00
3308;DHT22;1666;48.898;9.182;2022-08-11T15:23:10;29.70;1.00
3308;DHT22;1666;48.898;9.182;2022-08-11T15:25:55;29.60;1.00
3308;DHT22;1666;48.898;9.182;2022-08-11T15:28:28;29.70;1.00
3308;DHT22;1666;48.898;9.182;2022-08-11T15:31:12;29.60;1.00
3308;DHT22;1666;48.898;9.182;2022-08-11T15:33:59;29.50;1.00
3308;DHT22;1666;48.898;9.182;2022-08-11T15:36:46;29.70;1.00
3308;DHT22;1666;48.898;9.182;2022-08-11T15:39:35;29.70;1.00
3308;DHT22;1666;48.898;9.182;2022-08-11T15:42:28;29.70;1.00
3308;DHT22;1666;48.898;9.182;2022-08-11T15:45:12;29.50;1.00
3308;DHT22;1666;48.898;9.182;2022-08-11T15:48:01;29.70;1.00
3308;DHT22;1666;48.898;9.182;2022-08-11T15:50:35;29.50;1.00
3308;DHT22;1666;48.898;9.182;2022-08-11T15:53:12;29.70;1.00
3308;DHT22;1666;48.898;9.182;2022-08-11T15:55:50;29.80;1.00
3308;DHT22;1666;48.898;9.182;2022-08-11T15:58:22;29.60;1.00
3308;DHT22;1666;48.898;9.182;2022-08-11T16:01:06;29.60;1.00
3308;DHT22;1666;48.898;9.182;2022-08-11T16:03:54;29.40;1.00
3308;DHT22;1666;48.898;9.182;2022-08-11T16:06:44;29.50;1.00
3308;DHT22;1666;48.898;9.182;2022-08-11T16:09:22;29.60;1.00
3308;DHT22;1666;48.898;9.182;2022-08-11T16:12:01;29.50;1.00
3308;DHT22;1666;48.898;9.182;2022-08-11T16:14:35;29.30;1.00
3308;DHT22;1666;48.898;9.182;2022-08-11T16:17:18;29.30;1.00
3308;DHT22;1666;48.898;9.182;2022-08-11T16:19:52;29.30;1.00
3308;DHT22;1666;48.898;9.182;2022-08-11T16:22:26;29.30;1.00
3308;DHT22;1666;48.898;9.182;2022-08-11T16:25:10;29.30;1.00
3308;DHT22;1666;48.898;9.182;2022-08-11T16:28:05;29.30;1.00
3308;DHT22;1666;48.898;9.182;2022-08-11T16:30:42;29.30;1.00
3308;DHT22;1666;48.898;9.182;2022-08-11T16:33:14;29.30;1.00
3308;DHT22;1666;48.898;9.182;2022-08-11T16:36:06;29.10;1.00
3308;DHT22;1666;48.898;9.182;2022-08-11T16:38:49;29.20;1.00
3308;DHT22;1666;48.898;9.182;2022-08-11T16:41:23;29.30;1.00
3308;DHT22;1666;48.898;9.182;2022-08-11T16:44:10;29.20;1.00
3308;DHT22;1666;48.898;9.182;2022-08-11T16:47:05;29.10;1.00
3308;DHT22;1666;48.898;9.182;2022-08-11T16:49:41;29.20;1.00
3308;DHT22;1666;48.898;9.182;2022-08-11T16:52:18;29.20;1.00
3308;DHT22;1666;48.898;9.182;2022-08-11T16:54:49;29.10;1.00
3308;DHT22;1666;48.898;9.182;2022-08-11T16:57:22;29.10;1.00
3308;DHT22;1666;48.898;9.182;2022-08-11T17:00:09;29.10;1.00
3308;DHT22;1666;48.898;9.182;2022-08-11T17:02:43;29.10;1.00
3308;DHT22;1666;48.898;9.182;2022-08-11T17:05:27;29.10;1.00
3308;DHT22;1666;48.898;9.182;2022-08-11T17:08:25;29.00;1.00
3308;DHT22;1666;48.898;9.182;2022-08-11T17:11:22;29.10;1.00
3308;DHT22;1666;48.898;9.182;2022-08-11T17:14:10;29.20;1.00
3308;DHT22;1666;48.898;9.182;2022-08-11T17:16:44;29.20;1.00
3308;DHT22;1666;48.898;9.182;2022-08-11T17:19:20;29.20;1.00
3308;DHT22;1666;48.898;9.182;2022-08-11T17:22:10;29.10;1.00
3308;DHT22;1666;48.898;9.182;2022-08-11T17:24:54;28.90;1.00
3308;DHT22;1666;48.898;9.182;2022-08-11T17:27:27;28.90;1.00
3308;DHT22;1666;48.898;9.182;2022-08-11T17:30:01;29.00;1.00
3308;DHT22;1666;48.898;9.182;2022-08-11T17:32:36;28.90;1.00
3308;DHT22;1666;48.898;9.182;2022-08-11T17:35:28;28.80;1.00
3308;DHT22;1666;48.898;9.182;2022-08-11T17:38:04;28.60;1.00
3308;DHT22;1666;48.898;9.182;2022-08-11T17:40:36;28.50;1.00
3308;DHT22;1666;48.898;9.182;2022-08-11T17:43:28;28.40;1.00
3308;DHT22;1666;48.898;9.182;2022-08-11T17:46:12;28.30;1.00
3308;DHT22;1666;48.898;9.182;2022-08-11T17:48:58;28.30;1.00
3308;DHT22;1666;48.898;9.182;2022-08-11T17:51:29;28.10;1.00
3308;DHT22;1666;48.898;9.182;2022-08-11T17:54:12;28.10;1.00
3308;DHT22;1666;48.898;9.182;2022-08-11T17:56:55;28.00;1.00
3308;DHT22;1666;48.898;9.182;2022-08-11T17:59:47;27.90;1.00
3308;DHT22;1666;48.898;9.182;2022-08-11T18:02:25;27.90;1.00
3308;DHT22;1666;48.898;9.182;2022-08-11T18:05:13;27.70;1.00
3308;DHT22;1666;48.898;9.182;2022-08-11T18:07:45;27.70;1.00
3308;DHT22;1666;48.898;9.182;2022-08-11T18:10:31;27.70;1.00
3308;DHT22;1666;48.898;9.182;2022-08-11T18:13:15;27.60;1.00
3308;DHT22;1666;48.898;9.182;2022-08-11T18:15:58;27.40;1.00
3308;DHT22;1666;48.898;9.182;2022-08-11T18:18:41;27.40;1.00
3308;DHT22;1666;48.898;9.182;2022-08-11T18:21:27;27.40;1.00
3308;DHT22;1666;48.898;9.182;2022-08-11T18:24:32;27.30;1.00
3308;DHT22;1666;48.898;9.182;2022-08-11T18:27:18;27.30;1.00
3308;DHT22;1666;48.898;9.182;2022-08-11T18:30:02;27.20;1.00
3308;DHT22;1666;48.898;9.182;2022-08-11T18:32:46;27.10;1.00
3308;DHT22;1666;48.898;9.182;2022-08-11T18:35:52;27.00;1.00
3308;DHT22;1666;48.898;9.182;2022-08-11T18:38:38;26.90;1.00
3308;DHT22;1666;48.898;9.182;2022-08-11T18:41:21;26.70;1.00